Date,TemperatureHighF,TemperatureAvgF,TemperatureLowF,DewpointHighF,DewpointAvgF,DewpointLowF,HumidityHigh,HumidityAvg,HumidityLow,PressureMaxIn,PressureMinIn,WindSpeedMaxMPH,WindSpeedAvgMPH,GustSpeedMaxMPH,PrecipitationSumIn
2013-10-1,90.7,71.2,59.4,73.2,63.7,54.1,98,80,44,29.91,29.71,8,3,0,0.00
2013-10-2,87.6,72.5,55.9,77.3,65.6,53.4,98,81,48,29.96,29.79,12,4,0,0.02
2013-10-3,84.0,73.2,67.1,79.2,72.0,66.5,98,96,80,29.79,29.69,7,3,0,0.30
2013-10-4,77.9,66.3,62.4,77.3,65.7,61.8,98,98,98,29.82,29.67,16,6,0,1.04
2013-10-5,64.4,54.7,48.0,52.8,48.1,43.9,98,79,62,29.85,29.70,12,6,0,0.00
2013-10-6,50.0,47.3,42.8,49.5,46.6,42.3,98,97,90,29.83,29.66,12,5,0,0.20
2013-10-7,78.3,60.0,43.0,62.3,52.3,42.5,98,81,41,29.97,29.84,13,4,0,0.00
2013-10-8,79.2,64.3,50.4,62.3,56.3,49.9,98,78,47,30.00,29.89,14,5,0,0.00
2013-10-9,78.3,66.4,52.9,66.5,59.9,52.4,98,82,51,30.03,29.95,11,5,0,0.00
2013-10-10,71.8,57.8,49.3,67.3,57.0,48.8,98,97,85,29.99,29.81,7,2,0,0.00
2013-10-11,70.5,62.1,56.1,69.9,61.5,55.5,98,98,98,29.82,29.69,11,5,0,0.00
2013-10-12,69.6,58.0,42.3,64.2,49.4,41.8,98,77,39,30.19,29.75,14,6,0,0.00
2013-10-13,74.8,52.6,32.0,52.5,42.7,31.5,98,76,32,30.39,30.19,6,1,0,0.00
2013-10-14,66.0,56.9,43.3,60.0,49.2,42.1,98,77,53,30.29,29.73,14,7,0,0.03
2013-10-15,61.0,51.8,46.9,60.4,51.3,46.4,98,98,98,29.87,29.68,16,8,0,0.51
2013-10-16,50.5,46.3,36.5,50.0,45.8,36.0,98,98,98,29.94,29.86,12,6,0,0.00
2013-10-17,67.8,53.8,38.7,54.4,46.5,38.2,98,80,45,29.88,29.74,11,4,0,0.00
2013-10-18,52.3,45.1,36.7,47.0,40.8,36.2,98,86,59,29.99,29.88,12,5,0,0.01
2013-10-19,60.4,46.8,36.0,47.4,42.1,35.5,98,85,54,29.88,29.70,19,6,0,0.00
2013-10-20,66.0,49.9,38.8,56.6,46.8,38.3,98,90,58,29.86,29.63,13,5,0,0.00
2013-10-21,50.5,42.9,39.4,42.8,38.4,33.5,98,86,53,29.92,29.87,11,3,0,0.00
2013-10-22,42.8,39.9,36.7,42.3,39.4,36.2,98,98,98,30.00,29.78,10,4,0,0.12
2013-10-23,45.7,37.7,30.0,43.2,36.9,29.5,98,97,74,30.08,29.98,11,4,0,0.03
2013-10-24,46.4,37.0,29.5,40.1,34.6,29.0,98,92,73,30.30,30.08,10,4,0,0.00
2013-10-25,58.8,43.4,24.6,40.8,35.0,24.1,98,75,50,30.33,29.96,13,5,0,0.00
2013-10-26,55.4,45.0,30.4,43.2,37.0,29.9,98,76,47,30.08,29.87,15,6,0,0.00
2013-10-27,65.8,44.7,24.6,44.2,36.5,24.1,98,77,44,30.05,29.77,9,2,0,0.00
2013-10-28,57.6,44.4,34.0,49.0,42.3,33.5,98,93,71,30.21,29.91,12,5,0,0.00
2013-10-29,57.9,47.9,39.6,57.3,47.3,39.1,98,98,98,30.21,29.93,12,6,0,0.01
2013-10-30,66.0,57.2,52.2,65.4,56.6,51.7,98,98,98,29.94,29.57,13,5,0,0.98
2013-10-31,54.9,45.4,41.7,54.3,44.9,41.2,98,98,98,29.59,29.37,11,5,0,0.01